createdAt,value
2022-10-20T00:02:07.474Z,12.73
2022-10-20T00:04:35.388Z,15.63
2022-10-20T00:07:03.024Z,12.97
2022-10-20T00:09:30.584Z,12.70
2022-10-20T00:11:58.333Z,11.43
2022-10-20T00:14:26.059Z,12.40
2022-10-20T00:16:55.095Z,17.37
2022-10-20T00:19:22.712Z,11.07
2022-10-20T00:21:50.456Z,12.93
2022-10-20T00:24:19.841Z,16.47
2022-10-20T00:26:47.534Z,13.13
2022-10-20T00:29:15.277Z,15.30
2022-10-20T00:31:43.527Z,12.53
2022-10-20T00:34:12.801Z,14.93
2022-10-20T00:36:40.553Z,17.03
2022-10-20T00:39:08.686Z,11.43
2022-10-20T00:41:37.086Z,12.30
2022-10-20T00:44:43.199Z,14.90
2022-10-20T00:47:11.681Z,15.87
2022-10-20T00:49:41.184Z,13.27
2022-10-20T00:52:09.099Z,13.53
2022-10-20T00:54:36.970Z,11.37
2022-10-20T00:57:04.632Z,13.13
2022-10-20T00:59:34.868Z,10.93
2022-10-20T01:02:03.708Z,12.43
2022-10-20T01:04:32.248Z,14.23
2022-10-20T01:07:01.271Z,13.23
2022-10-20T01:09:29.049Z,12.47
2022-10-20T01:12:01.992Z,12.67
2022-10-20T01:14:36.657Z,11.17
2022-10-20T01:17:12.496Z,15.97
2022-10-20T01:20:27.896Z,11.20
2022-10-20T01:23:28.591Z,13.33
2022-10-20T01:26:17.136Z,9.53
2022-10-20T01:28:48.300Z,9.87
2022-10-20T01:31:23.502Z,13.13
2022-10-20T01:33:56.143Z,13.13
2022-10-20T01:36:29.309Z,10.47
2022-10-20T01:39:01.874Z,13.87
2022-10-20T01:41:34.095Z,11.87
2022-10-20T01:44:04.908Z,9.03
2022-10-20T01:46:33.558Z,11.93
2022-10-20T01:49:02.207Z,9.33
2022-10-20T01:51:29.857Z,11.80
2022-10-20T01:53:57.534Z,10.13
2022-10-20T01:56:28.481Z,11.03
2022-10-20T01:59:12.102Z,8.77
2022-10-20T02:01:51.637Z,9.83
2022-10-20T02:04:25.651Z,8.33
2022-10-20T02:06:58.181Z,11.43
2022-10-20T02:09:31.784Z,10.80
2022-10-20T02:12:02.717Z,11.57
2022-10-20T02:14:33.079Z,9.67
2022-10-20T02:17:02.051Z,11.80
2022-10-20T02:19:32.721Z,8.50
2022-10-20T02:22:00.415Z,13.47
2022-10-20T02:24:31.115Z,9.37
2022-10-20T02:27:00.127Z,10.53
2022-10-20T02:29:32.536Z,11.73
2022-10-20T02:32:00.386Z,10.43
2022-10-20T02:34:28.431Z,11.07
2022-10-20T02:36:58.051Z,13.70
2022-10-20T02:39:25.723Z,12.67
2022-10-20T02:41:54.524Z,13.00
2022-10-20T02:44:22.744Z,10.43
2022-10-20T02:46:51.801Z,8.30
2022-10-20T02:49:20.404Z,13.27
2022-10-20T02:51:48.067Z,13.33
2022-10-20T02:54:15.571Z,18.17
2022-10-20T02:56:43.161Z,7.57
2022-10-20T02:59:13.683Z,11.97
2022-10-20T03:01:41.415Z,9.63
2022-10-20T03:04:10.360Z,13.30
2022-10-20T03:06:37.909Z,10.43
2022-10-20T03:09:05.686Z,8.17
2022-10-20T03:11:33.395Z,9.80
2022-10-20T03:14:00.918Z,10.23
2022-10-20T03:16:28.489Z,8.90
2022-10-20T03:18:59.926Z,9.33
2022-10-20T03:21:32.352Z,9.80
2022-10-20T03:23:59.993Z,9.10
2022-10-20T03:26:27.629Z,10.13
2022-10-20T03:28:55.188Z,11.13
2022-10-20T03:31:22.803Z,9.83
2022-10-20T03:33:50.414Z,10.33
2022-10-20T03:36:18.104Z,16.53
2022-10-20T03:38:46.972Z,9.03
2022-10-20T03:41:14.593Z,10.33
2022-10-20T03:43:42.155Z,8.67
2022-10-20T03:46:11.579Z,9.17
2022-10-20T03:48:40.639Z,10.33
2022-10-20T03:51:09.017Z,11.00
2022-10-20T03:53:36.736Z,14.57
2022-10-20T03:56:08.400Z,9.40
2022-10-20T03:58:36.364Z,11.53
2022-10-20T04:01:06.274Z,10.07
2022-10-20T04:03:33.833Z,10.03
2022-10-20T04:06:01.806Z,16.10
2022-10-20T04:08:29.386Z,9.70
2022-10-20T04:10:56.956Z,10.20
2022-10-20T04:13:25.923Z,10.03
2022-10-20T04:15:53.484Z,13.53
2022-10-20T04:18:21.064Z,9.70
2022-10-20T04:20:49.293Z,10.10
2022-10-20T04:23:16.887Z,12.73
2022-10-20T04:25:48.353Z,13.73
2022-10-20T04:28:17.205Z,11.87
2022-10-20T04:30:46.838Z,9.80
2022-10-20T04:33:14.708Z,9.17
2022-10-20T04:35:42.493Z,11.70
2022-10-20T04:38:10.216Z,9.53
2022-10-20T04:40:37.752Z,9.60
2022-10-20T04:43:05.330Z,12.10
2022-10-20T04:45:32.939Z,11.30
2022-10-20T04:48:02.197Z,12.33
2022-10-20T04:50:29.769Z,11.30
2022-10-20T04:52:57.294Z,12.93
2022-10-20T04:55:24.862Z,11.30
2022-10-20T04:57:52.409Z,14.27
2022-10-20T05:00:19.981Z,11.10
2022-10-20T05:02:47.500Z,14.30
2022-10-20T05:05:16.574Z,13.07
2022-10-20T05:07:44.359Z,9.80
2022-10-20T05:10:11.872Z,13.77
2022-10-20T05:12:39.560Z,14.10
2022-10-20T05:15:08.107Z,13.50
2022-10-20T05:17:35.701Z,11.90
2022-10-20T05:20:03.243Z,16.40
2022-10-20T05:22:33.140Z,9.87
2022-10-20T05:25:12.768Z,11.07
2022-10-20T05:27:48.365Z,10.90
2022-10-20T05:30:16.024Z,11.83
2022-10-20T05:32:43.588Z,12.87
2022-10-20T05:35:11.190Z,10.93
2022-10-20T05:37:40.102Z,10.63
2022-10-20T05:40:09.361Z,12.57
2022-10-20T05:42:37.232Z,12.33
2022-10-20T05:45:05.524Z,11.73
2022-10-20T05:47:34.563Z,11.77
2022-10-20T05:50:02.392Z,12.40
2022-10-20T05:52:30.005Z,10.87
2022-10-20T05:54:59.449Z,13.70
2022-10-20T05:57:27.003Z,11.87
2022-10-20T05:59:54.592Z,15.17
2022-10-20T06:02:22.298Z,13.87
2022-10-20T06:04:49.849Z,10.57
2022-10-20T06:07:17.395Z,17.03
2022-10-20T06:09:44.981Z,10.93
2022-10-20T06:12:14.310Z,13.17
2022-10-20T06:14:41.905Z,11.43
2022-10-20T06:17:10.380Z,13.17
2022-10-20T06:19:38.056Z,12.47
2022-10-20T06:22:06.882Z,15.07
2022-10-20T06:24:34.773Z,13.50
2022-10-20T06:27:02.325Z,12.40
2022-10-20T06:29:31.325Z,13.60
2022-10-20T06:31:58.945Z,12.80
2022-10-20T06:34:27.102Z,13.63
2022-10-20T06:36:54.833Z,11.83
2022-10-20T06:39:23.801Z,10.67
2022-10-20T06:41:52.736Z,12.43
2022-10-20T06:44:21.087Z,14.77
2022-10-20T06:46:52.178Z,14.07
2022-10-20T06:49:21.078Z,11.27
2022-10-20T06:51:48.717Z,13.43
2022-10-20T06:54:16.266Z,11.33
2022-10-20T06:56:43.804Z,13.23
2022-10-20T06:59:11.388Z,14.80
2022-10-20T07:01:40.264Z,16.93
2022-10-20T07:04:11.949Z,15.97
2022-10-20T07:06:41.111Z,14.63
2022-10-20T07:09:12.387Z,13.00
2022-10-20T07:11:40.115Z,12.60
2022-10-20T07:14:07.723Z,15.80
2022-10-20T07:16:35.928Z,15.57
2022-10-20T07:19:04.781Z,14.90
2022-10-20T07:21:38.187Z,13.43
2022-10-20T07:24:09.326Z,12.43
2022-10-20T07:26:39.160Z,13.80
2022-10-20T07:29:06.960Z,13.20
2022-10-20T07:31:36.501Z,14.07
2022-10-20T07:34:23.463Z,15.63
2022-10-20T07:36:54.395Z,14.77
2022-10-20T07:39:21.924Z,14.53
2022-10-20T07:41:49.589Z,13.43
2022-10-20T07:44:17.572Z,14.80
2022-10-20T07:46:45.159Z,12.87
2022-10-20T07:52:01.799Z,12.80
2022-10-20T07:54:29.343Z,17.60
2022-10-20T07:56:56.963Z,14.87
2022-10-20T07:59:24.569Z,16.23
2022-10-20T08:01:54.732Z,13.87
2022-10-20T08:04:25.041Z,14.83
2022-10-20T08:06:52.654Z,16.97
2022-10-20T08:09:21.560Z,15.20
2022-10-20T08:11:52.762Z,20.27
2022-10-20T08:14:23.026Z,17.67
2022-10-20T08:16:50.641Z,15.83
2022-10-20T08:19:25.032Z,15.07
2022-10-20T08:21:53.086Z,14.83
2022-10-20T08:24:22.190Z,15.37
2022-10-20T08:26:49.737Z,14.97
2022-10-20T08:29:17.273Z,16.13
2022-10-20T08:31:44.863Z,16.03
2022-10-20T08:34:12.591Z,14.80
2022-10-20T08:36:40.211Z,15.77
2022-10-20T08:39:07.792Z,18.60
2022-10-20T08:42:03.187Z,19.20
2022-10-20T08:44:29.347Z,13.43
2022-10-20T08:46:57.227Z,20.57
2022-10-20T08:49:27.102Z,15.07
2022-10-20T08:51:54.685Z,14.37
2022-10-20T08:54:22.241Z,14.00
2022-10-20T08:56:52.640Z,13.43
2022-10-20T08:59:27.428Z,15.93
2022-10-20T09:01:55.516Z,13.90
2022-10-20T09:04:25.221Z,12.67
2022-10-20T09:06:55.652Z,16.37
2022-10-20T09:09:24.017Z,15.20
2022-10-20T09:11:53.540Z,12.73
2022-10-20T09:14:21.118Z,13.53
2022-10-20T09:16:59.682Z,13.60
2022-10-20T09:19:29.098Z,13.40
2022-10-20T09:21:58.916Z,17.30
2022-10-20T09:24:30.000Z,13.07
2022-10-20T09:27:19.036Z,15.30
2022-10-20T09:29:46.605Z,12.17
2022-10-20T09:35:20.727Z,15.87
2022-10-20T09:37:53.763Z,13.00
2022-10-20T09:40:21.848Z,14.23
2022-10-20T09:42:54.589Z,15.40
2022-10-20T09:45:23.763Z,18.03
2022-10-20T09:47:53.513Z,16.23
2022-10-20T09:50:24.800Z,16.50
2022-10-20T09:52:52.498Z,16.73
2022-10-20T09:55:28.131Z,13.37
2022-10-20T09:57:58.351Z,14.77
2022-10-20T10:00:43.084Z,16.40
2022-10-20T10:03:21.340Z,16.13
2022-10-20T10:05:51.063Z,15.17
2022-10-20T10:08:19.361Z,15.43
2022-10-20T10:10:58.299Z,14.27
2022-10-20T10:13:31.606Z,15.03
2022-10-20T10:16:05.383Z,15.73
2022-10-20T10:18:33.237Z,14.60
2022-10-20T10:21:03.216Z,19.07
2022-10-20T10:23:32.037Z,14.27
2022-10-20T10:26:02.222Z,14.43
2022-10-20T10:28:37.267Z,22.13
2022-10-20T10:31:23.812Z,16.60
2022-10-20T10:33:54.928Z,15.10
2022-10-20T10:36:34.823Z,17.80
2022-10-20T10:39:03.100Z,15.00
2022-10-20T10:41:47.508Z,16.17
2022-10-20T10:44:25.274Z,15.83
2022-10-20T10:46:58.322Z,15.13
2022-10-20T10:49:44.338Z,16.43
2022-10-20T10:52:22.982Z,13.83
2022-10-20T10:54:58.600Z,14.07
2022-10-20T10:57:32.287Z,13.37
2022-10-20T11:00:04.755Z,14.00
2022-10-20T11:02:46.068Z,14.70
2022-10-20T11:05:28.589Z,15.73
2022-10-20T11:08:05.220Z,22.80
2022-10-20T11:10:41.485Z,15.60
2022-10-20T11:13:26.949Z,16.30
2022-10-20T11:16:11.374Z,14.27
2022-10-20T11:19:11.579Z,14.87
2022-10-20T11:21:48.328Z,15.77
2022-10-20T11:24:25.625Z,16.90
2022-10-20T11:26:59.361Z,13.70
2022-10-20T11:29:30.614Z,16.17
2022-10-20T11:32:07.611Z,16.20
2022-10-20T11:34:38.505Z,16.10
2022-10-20T11:37:13.914Z,13.77
2022-10-20T11:39:44.079Z,14.90
2022-10-20T11:42:19.979Z,14.97
2022-10-20T11:44:48.875Z,14.37
2022-10-20T11:47:21.195Z,14.57
2022-10-20T11:49:48.764Z,12.40
2022-10-20T11:52:36.765Z,13.27
2022-10-20T11:55:16.355Z,17.43
2022-10-20T11:57:57.668Z,13.87
2022-10-20T12:00:38.224Z,16.80
2022-10-20T12:03:34.991Z,17.07
2022-10-20T12:06:37.865Z,14.80
2022-10-20T12:09:22.757Z,14.77
2022-10-20T12:11:56.522Z,15.33
2022-10-20T12:14:27.273Z,15.53
2022-10-20T12:17:14.767Z,16.63
2022-10-20T12:19:44.345Z,14.63
2022-10-20T12:22:42.470Z,16.80
2022-10-20T12:25:20.154Z,14.80
2022-10-20T12:27:47.734Z,14.03
2022-10-20T12:30:51.620Z,14.97
2022-10-20T12:33:20.480Z,15.57
2022-10-20T12:36:23.607Z,15.77
2022-10-20T12:38:52.846Z,15.37
2022-10-20T12:41:27.162Z,17.27
2022-10-20T12:43:55.349Z,19.13
2022-10-20T12:46:24.501Z,18.73
2022-10-20T12:48:57.354Z,15.00
2022-10-20T12:51:34.085Z,14.17
2022-10-20T12:54:05.948Z,16.17
2022-10-20T12:56:37.540Z,15.43
2022-10-20T12:59:21.785Z,17.30
2022-10-20T13:02:20.954Z,16.67
2022-10-20T13:04:56.045Z,19.07
2022-10-20T13:08:01.811Z,17.30
2022-10-20T13:10:30.809Z,21.37
2022-10-20T13:13:45.390Z,19.33
2022-10-20T13:16:19.184Z,16.50
2022-10-20T13:18:49.731Z,21.63
2022-10-20T13:21:31.709Z,21.70
2022-10-20T13:24:15.172Z,18.73
2022-10-20T13:26:51.231Z,21.00
2022-10-20T13:29:25.608Z,18.87
2022-10-20T13:32:04.212Z,17.67
2022-10-20T13:34:36.817Z,27.83
2022-10-20T13:37:19.135Z,23.23
2022-10-20T13:39:58.089Z,24.70
2022-10-20T13:42:43.769Z,22.50
2022-10-20T13:45:18.466Z,21.37
2022-10-20T13:47:53.239Z,19.93
2022-10-20T13:50:24.380Z,22.60
2022-10-20T13:52:53.716Z,21.50
2022-10-20T13:55:24.243Z,21.60
2022-10-20T13:57:55.495Z,21.53
2022-10-20T14:00:26.354Z,22.73
2022-10-20T14:02:56.678Z,23.47
2022-10-20T14:05:25.236Z,20.63
2022-10-20T14:07:53.227Z,20.10
2022-10-20T14:10:30.683Z,23.17
2022-10-20T14:12:58.320Z,20.47
2022-10-20T14:15:30.377Z,21.47
2022-10-20T14:18:00.471Z,21.87
2022-10-20T14:20:29.093Z,20.07
2022-10-20T14:22:58.188Z,19.70
2022-10-20T14:25:27.993Z,20.57
2022-10-20T14:27:56.503Z,22.97
2022-10-20T14:30:26.516Z,25.97
2022-10-20T14:32:54.684Z,22.90
2022-10-20T14:35:29.813Z,21.87
2022-10-20T14:38:00.355Z,21.57
2022-10-20T14:40:31.304Z,24.20
2022-10-20T14:43:03.092Z,26.30
2022-10-20T14:47:59.929Z,24.17
2022-10-20T14:50:33.459Z,23.63
2022-10-20T14:53:33.400Z,24.23
2022-10-20T14:56:03.097Z,23.47
2022-10-20T14:58:33.850Z,25.93
2022-10-20T15:01:26.228Z,27.53
2022-10-20T15:06:40.486Z,24.57
2022-10-20T15:09:18.104Z,25.90
2022-10-20T15:11:47.133Z,24.87
2022-10-20T15:14:16.427Z,23.13
2022-10-20T15:16:46.177Z,26.77
2022-10-20T15:19:29.187Z,22.67
2022-10-20T15:22:01.151Z,25.50
2022-10-20T15:24:29.171Z,23.43
2022-10-20T15:26:58.583Z,23.87
2022-10-20T15:29:26.899Z,22.33
2022-10-20T15:31:54.689Z,25.37
2022-10-20T15:34:22.509Z,23.20
2022-10-20T15:36:51.126Z,25.70
2022-10-20T15:39:19.175Z,22.37
2022-10-20T15:41:49.006Z,23.27
2022-10-20T15:44:22.334Z,25.77
2022-10-20T15:46:50.938Z,25.87
2022-10-20T15:49:18.486Z,30.27
2022-10-20T15:51:47.501Z,22.53
2022-10-20T15:54:16.918Z,29.33
2022-10-20T15:56:44.685Z,27.93
2022-10-20T15:59:12.214Z,26.93
2022-10-20T16:01:41.158Z,23.83
2022-10-20T16:04:17.634Z,25.90
2022-10-20T16:06:45.289Z,26.33
2022-10-20T16:09:15.788Z,27.93
2022-10-20T16:11:44.121Z,29.00
2022-10-20T16:14:11.773Z,27.50
2022-10-20T16:16:40.731Z,23.93
2022-10-20T16:19:08.374Z,26.87
2022-10-20T16:21:35.961Z,31.13
2022-10-20T16:24:03.624Z,27.40
2022-10-20T16:26:31.157Z,23.27
2022-10-20T16:28:58.755Z,25.27
2022-10-20T16:31:26.269Z,28.20
2022-10-20T16:33:55.249Z,29.90
2022-10-20T16:36:22.807Z,28.40
2022-10-20T16:38:55.569Z,27.57
2022-10-20T16:41:23.145Z,28.53
2022-10-20T16:43:50.790Z,25.90
2022-10-20T16:46:18.581Z,29.90
2022-10-20T16:48:48.047Z,26.30
2022-10-20T16:51:17.766Z,25.80
2022-10-20T16:53:45.516Z,25.17
2022-10-20T16:56:15.433Z,26.53
2022-10-20T16:58:45.943Z,27.47
2022-10-20T17:01:14.517Z,36.00
2022-10-20T17:06:18.901Z,26.70
2022-10-20T17:08:46.922Z,25.97
2022-10-20T17:11:16.926Z,24.10
2022-10-20T17:13:44.645Z,28.10
2022-10-20T17:16:14.279Z,26.90
2022-10-20T17:18:42.064Z,28.87
2022-10-20T17:21:10.149Z,29.13
2022-10-20T17:23:42.663Z,27.50
2022-10-20T17:26:13.218Z,25.37
2022-10-20T17:28:40.921Z,29.50
2022-10-20T17:31:09.939Z,28.33
2022-10-20T17:33:38.349Z,27.17
2022-10-20T17:36:07.189Z,27.80
2022-10-20T17:38:35.390Z,30.37
2022-10-20T17:41:09.379Z,30.87
2022-10-20T17:43:37.147Z,28.47
2022-10-20T17:46:06.743Z,33.90
2022-10-20T17:48:35.557Z,31.57
2022-10-20T17:51:04.555Z,34.90
2022-10-20T17:53:32.750Z,37.90
2022-10-20T17:56:02.391Z,30.40
2022-10-20T17:58:31.586Z,35.27
2022-10-20T18:01:08.679Z,35.87
2022-10-20T18:03:36.480Z,34.03
2022-10-20T18:06:08.280Z,35.13
2022-10-20T18:08:35.887Z,36.27
2022-10-20T18:11:03.743Z,42.80
2022-10-20T18:13:32.590Z,55.70
2022-10-20T18:16:00.152Z,54.97
2022-10-20T18:18:27.696Z,38.03
2022-10-20T18:20:56.162Z,32.00
2022-10-20T18:23:24.052Z,31.53
2022-10-20T18:25:51.587Z,31.50
2022-10-20T18:28:23.312Z,33.90
2022-10-20T18:30:52.609Z,28.93
2022-10-20T18:33:20.168Z,32.70
2022-10-20T18:35:47.709Z,30.07
2022-10-20T18:38:15.228Z,32.03
2022-10-20T18:40:42.796Z,33.40
2022-10-20T18:43:10.306Z,31.60
2022-10-20T18:45:37.882Z,26.00
2022-10-20T18:48:07.189Z,31.57
2022-10-20T18:50:34.725Z,27.00
2022-10-20T18:53:02.308Z,30.43
2022-10-20T18:55:29.867Z,32.93
2022-10-20T18:57:57.429Z,35.73
2022-10-20T19:00:24.975Z,32.47
2022-10-20T19:02:55.759Z,35.67
2022-10-20T19:05:26.868Z,32.40
2022-10-20T19:07:54.498Z,33.73
2022-10-20T19:10:22.026Z,35.03
2022-10-20T19:12:49.571Z,36.93
2022-10-20T19:15:18.360Z,31.97
2022-10-20T19:17:45.920Z,34.70
2022-10-20T19:20:13.581Z,32.10
2022-10-20T19:22:43.917Z,28.40
2022-10-20T19:25:11.499Z,30.77
2022-10-20T19:27:39.076Z,32.20
2022-10-20T19:30:07.203Z,44.90
2022-10-20T19:32:39.008Z,189.97
2022-10-20T19:35:09.269Z,116.50
2022-10-20T19:37:36.892Z,153.47
2022-10-20T19:40:06.552Z,56.27
2022-10-20T19:42:34.286Z,38.33
2022-10-20T19:45:02.046Z,35.37
2022-10-20T19:47:29.641Z,42.67
2022-10-20T19:49:57.185Z,70.53
2022-10-20T19:52:24.709Z,34.87
2022-10-20T19:54:52.406Z,35.67
2022-10-20T19:57:21.280Z,45.03
2022-10-20T19:59:49.116Z,32.40
2022-10-20T20:02:16.746Z,39.43
2022-10-20T20:04:44.366Z,40.50
2022-10-20T20:07:11.969Z,36.77
2022-10-20T20:09:39.588Z,37.83
2022-10-20T20:12:08.618Z,42.77
2022-10-20T20:14:37.500Z,30.77
2022-10-20T20:17:07.377Z,40.67
2022-10-20T20:19:37.842Z,36.13
2022-10-20T20:22:05.443Z,38.10
2022-10-20T20:24:33.313Z,44.47
2022-10-20T20:27:00.976Z,39.67
2022-10-20T20:29:28.615Z,44.53
2022-10-20T20:31:57.557Z,44.20
2022-10-20T20:34:25.432Z,42.47
2022-10-20T20:36:53.013Z,44.10
2022-10-20T20:39:20.696Z,33.83
2022-10-20T20:41:49.264Z,44.70
2022-10-20T20:44:17.066Z,40.90
2022-10-20T20:46:44.656Z,40.17
2022-10-20T20:49:13.991Z,40.50
2022-10-20T20:51:41.616Z,39.80
2022-10-20T20:54:10.123Z,40.07
2022-10-20T20:56:37.663Z,42.33
2022-10-20T20:59:05.319Z,55.47
2022-10-20T21:01:33.043Z,37.57
2022-10-20T21:04:02.359Z,41.03
2022-10-20T21:07:00.207Z,42.23
2022-10-20T21:09:19.131Z,45.57
2022-10-20T21:11:48.825Z,42.13
2022-10-20T21:14:16.431Z,45.47
2022-10-20T21:16:44.012Z,66.50
2022-10-20T21:19:11.912Z,79.30
2022-10-20T21:21:43.476Z,41.33
2022-10-20T21:24:12.604Z,95.30
2022-10-20T21:26:40.364Z,43.10
2022-10-20T21:29:08.016Z,72.30
2022-10-20T21:31:35.610Z,170.40
2022-10-20T21:34:04.789Z,39.00
2022-10-20T21:36:34.740Z,61.37
2022-10-20T21:39:04.896Z,59.10
2022-10-20T21:41:35.600Z,39.03
2022-10-20T21:44:04.758Z,38.30
2022-10-20T21:46:34.417Z,101.63
2022-10-20T21:49:03.696Z,46.87
2022-10-20T21:51:35.054Z,248.70
2022-10-20T21:54:06.034Z,37.10
2022-10-20T21:56:36.280Z,53.63
2022-10-20T21:59:04.409Z,124.47
2022-10-20T22:01:32.123Z,61.03
2022-10-20T22:03:59.968Z,37.73
2022-10-20T22:06:28.498Z,32.13
2022-10-20T22:08:57.982Z,40.43
2022-10-20T22:11:28.548Z,45.40
2022-10-20T22:13:56.594Z,121.07
2022-10-20T22:16:26.796Z,120.60
2022-10-20T22:18:57.907Z,56.00
2022-10-20T22:21:25.891Z,45.97
2022-10-20T22:23:54.630Z,34.23
2022-10-20T22:26:22.462Z,43.53
2022-10-20T22:28:52.487Z,34.17
2022-10-20T22:31:20.265Z,29.27
2022-10-20T22:33:47.959Z,28.03
2022-10-20T22:36:15.638Z,30.23
2022-10-20T22:38:43.332Z,30.10
2022-10-20T22:41:11.850Z,27.07
2022-10-20T22:43:40.052Z,25.53
2022-10-20T22:46:09.438Z,23.77
2022-10-20T22:48:37.493Z,29.13
2022-10-20T22:51:06.226Z,25.40
2022-10-20T22:53:33.927Z,29.27
2022-10-20T22:56:06.447Z,30.90
2022-10-20T22:58:34.268Z,26.07
2022-10-20T23:01:06.066Z,27.90
2022-10-20T23:03:35.181Z,23.80
2022-10-20T23:06:07.009Z,21.80
2022-10-20T23:08:38.827Z,19.23
2022-10-20T23:11:06.406Z,19.60
2022-10-20T23:13:33.987Z,17.37
2022-10-20T23:16:01.955Z,20.80
2022-10-20T23:18:29.767Z,18.03
2022-10-20T23:20:58.799Z,16.70
2022-10-20T23:23:26.520Z,18.37
2022-10-20T23:25:54.092Z,14.77
2022-10-20T23:28:22.032Z,16.33
2022-10-20T23:30:49.668Z,18.43
2022-10-20T23:33:17.425Z,17.10
2022-10-20T23:35:47.856Z,17.20
2022-10-20T23:38:16.852Z,183.67
2022-10-20T23:40:44.493Z,1661.03
2022-10-20T23:43:12.086Z,1648.70
2022-10-20T23:45:39.806Z,1140.73
2022-10-20T23:48:07.358Z,1329.97
2022-10-20T23:50:35.011Z,1268.17
2022-10-20T23:53:02.739Z,410.40
2022-10-20T23:55:31.703Z,39.03
2022-10-20T23:57:59.305Z,41.77
